10chiemaru — JD2376 — position and weather

sailwx.info

Track history (hours):
 
Tides and Currents Weather Stations Pressure Air Temp Water Temp Dewpoint Dewpoint Depression Visibility Wind Speed Wind Dir Waves Ship Positions

10chiemaru

Last reported at 2014-Oct-29 08:33 UTC. Time now 2014-Oct-31 06:18 UTC.
Position N 35°14' E 139°46'.

Length 72 m; draft 3.8 m.

Type: Ship. MMSI: 431000147.

Date/timePositionNaut miles runAvg speedWind from/ knotsBaromVisibWave heightAir tempDewpointWater temp
2014-Oct-29 08:33N 35°14' E 139°46'1010.5
2014-Oct-29 07:33N 35°24' E 139°42'4 4.1
2014-Oct-29 06:33N 35°28' E 139°40'0 0.0
2014-Oct-29 05:33N 35°28' E 139°40'0 0.0
2014-Oct-29 04:33N 35°28' E 139°40'2 2.1
2014-Oct-29 03:33N 35°27' E 139°42'3 3.4
2014-Oct-29 02:33N 35°24' E 139°45'0 0.0
2014-Oct-29 01:33N 35°24' E 139°45'0 0.1
2014-Oct-29 00:33N 35°24' E 139°45'0 0.0
2014-Oct-28 23:33N 35°24' E 139°45'0 0.0
2014-Oct-28 22:33N 35°24' E 139°45'3 3.2
2014-Oct-28 21:34N 35°21' E 139°44'1110.3
2014-Oct-28 20:31N 35°10' E 139°46'  
2014-Oct-26 08:06N 35°13' E 139°46'611.4
2014-Oct-26 07:33N 35°19' E 139°43'1010.0
2014-Oct-26 06:33N 35°28' E 139°48'2 0.4
2014-Oct-26 01:33N 35°30' E 139°48'2 2.5
2014-Oct-26 00:34N 35°30' E 139°45'0 0.0
2014-Oct-25 23:34N 35°30' E 139°45'4 4.1
2014-Oct-25 22:32N 35°30' E 139°50'0 0.0
2014-Oct-25 21:06N 35°30' E 139°50'0 0.0
2014-Oct-25 20:27N 35°30' E 139°50'0 0.0
2014-Oct-25 19:29N 35°30' E 139°50'0 0.0
2014-Oct-25 18:29N 35°30' E 139°50'0 0.0
2014-Oct-25 17:32N 35°30' E 139°50'0 0.0
2014-Oct-25 16:29N 35°30' E 139°50'0 0.0
2014-Oct-25 13:15N 35°30' E 139°50'0 0.0
2014-Oct-25 12:09N 35°30' E 139°50'0 0.1
2014-Oct-25 11:27N 35°30' E 139°50'0 0.0
2014-Oct-25 10:21N 35°30' E 139°50'0 0.0
2014-Oct-25 09:29N 35°30' E 139°50'5 5.2
2014-Oct-25 08:34N 35°27' E 139°46'6 5.8
2014-Oct-25 07:34N 35°25' E 139°39'0 0.0
2014-Oct-25 06:33N 35°25' E 139°39'0 0.0
2014-Oct-25 05:34N 35°25' E 139°39'0 0.0
2014-Oct-25 04:33N 35°25' E 139°39'0 0.0
2014-Oct-25 03:34N 35°25' E 139°39'1 0.6
2014-Oct-25 02:34N 35°24' E 139°39'4 4.0
2014-Oct-25 01:33N 35°23' E 139°44'0 0.0
2014-Oct-25 00:33N 35°23' E 139°44'0 0.0
2014-Oct-24 23:33N 35°23' E 139°44'0 0.0
2014-Oct-24 22:33N 35°23' E 139°44'0 0.0
2014-Oct-24 21:33N 35°23' E 139°44'5 4.7
2014-Oct-24 20:33N 35°18' E 139°44'  
2014-Oct-20 06:33N 35°18' E 139°44'1010.4
2014-Oct-20 05:33N 35°28' E 139°47'3 3.2
2014-Oct-20 04:32N 35°31' E 139°46'0 0.0
2014-Oct-20 03:33N 35°31' E 139°46'0 0.0
2014-Oct-20 02:30N 35°31' E 139°46'0 0.1
2014-Oct-20 01:33N 35°31' E 139°46'0 0.0
2014-Oct-20 00:33N 35°31' E 139°46'  
Track history (hours):
 
Tides and Currents Weather Stations Pressure Air Temp Water Temp Dewpoint Dewpoint Depression Visibility Wind Speed Wind Dir Waves Ship Positions

10chiemaru

Last reported at 2014-Oct-29 08:33 UTC. Time now 2014-Oct-31 06:18 UTC.
Position N 35°14' E 139°46'.

Length 72 m; draft 3.8 m.

Type: Ship. MMSI: 431000147.

Date/timePositionNaut miles runAvg speedWind from/ knotsBaromVisibWave heightAir tempDewpointWater temp
2014-Oct-29 08:33N 35°14' E 139°46'1010.5
2014-Oct-29 07:33N 35°24' E 139°42'4 4.1
2014-Oct-29 06:33N 35°28' E 139°40'0 0.0
2014-Oct-29 05:33N 35°28' E 139°40'0 0.0
2014-Oct-29 04:33N 35°28' E 139°40'2 2.1
2014-Oct-29 03:33N 35°27' E 139°42'3 3.4
2014-Oct-29 02:33N 35°24' E 139°45'0 0.0
2014-Oct-29 01:33N 35°24' E 139°45'0 0.1
2014-Oct-29 00:33N 35°24' E 139°45'0 0.0
2014-Oct-28 23:33N 35°24' E 139°45'0 0.0
2014-Oct-28 22:33N 35°24' E 139°45'3 3.2
2014-Oct-28 21:34N 35°21' E 139°44'1110.3
2014-Oct-28 20:31N 35°10' E 139°46'  
2014-Oct-26 08:06N 35°13' E 139°46'611.4
2014-Oct-26 07:33N 35°19' E 139°43'1010.0
2014-Oct-26 06:33N 35°28' E 139°48'2 0.4
2014-Oct-26 01:33N 35°30' E 139°48'2 2.5
2014-Oct-26 00:34N 35°30' E 139°45'0 0.0
2014-Oct-25 23:34N 35°30' E 139°45'4 4.1
2014-Oct-25 22:32N 35°30' E 139°50'0 0.0
2014-Oct-25 21:06N 35°30' E 139°50'0 0.0
2014-Oct-25 20:27N 35°30' E 139°50'0 0.0
2014-Oct-25 19:29N 35°30' E 139°50'0 0.0
2014-Oct-25 18:29N 35°30' E 139°50'0 0.0
2014-Oct-25 17:32N 35°30' E 139°50'0 0.0
2014-Oct-25 16:29N 35°30' E 139°50'0 0.0
2014-Oct-25 13:15N 35°30' E 139°50'0 0.0
2014-Oct-25 12:09N 35°30' E 139°50'0 0.1
2014-Oct-25 11:27N 35°30' E 139°50'0 0.0
2014-Oct-25 10:21N 35°30' E 139°50'0 0.0
2014-Oct-25 09:29N 35°30' E 139°50'5 5.2
2014-Oct-25 08:34N 35°27' E 139°46'6 5.8
2014-Oct-25 07:34N 35°25' E 139°39'0 0.0
2014-Oct-25 06:33N 35°25' E 139°39'0 0.0
2014-Oct-25 05:34N 35°25' E 139°39'0 0.0
2014-Oct-25 04:33N 35°25' E 139°39'0 0.0
2014-Oct-25 03:34N 35°25' E 139°39'1 0.6
2014-Oct-25 02:34N 35°24' E 139°39'4 4.0
2014-Oct-25 01:33N 35°23' E 139°44'0 0.0
2014-Oct-25 00:33N 35°23' E 139°44'0 0.0
2014-Oct-24 23:33N 35°23' E 139°44'0 0.0
2014-Oct-24 22:33N 35°23' E 139°44'0 0.0
2014-Oct-24 21:33N 35°23' E 139°44'5 4.7
2014-Oct-24 20:33N 35°18' E 139°44'  
2014-Oct-20 06:33N 35°18' E 139°44'1010.4
2014-Oct-20 05:33N 35°28' E 139°47'3 3.2
2014-Oct-20 04:32N 35°31' E 139°46'0 0.0
2014-Oct-20 03:33N 35°31' E 139°46'0 0.0
2014-Oct-20 02:30N 35°31' E 139°46'0 0.1
2014-Oct-20 01:33N 35°31' E 139°46'0 0.0
2014-Oct-20 00:33N 35°31' E 139°46'  

Dump ship's entire track history